Scroll down
FLIGHT INFORMATION
El Al Israel Airlines

ELY727

At Arrival Gate

LLBG
 LCLK
DATE: 2020-07-27
GATE:  -
GATE DEPARTURE: 08:05
TAKEOFF: 08:06
DATE: 2020-07-27
GATE:  -
LANDING: 08:45
GATE ARRIVAL: 08:59
FLIGHT DATA
Crew: 
Speed: 
478 kts
Altitude: 
20,004 ft
Stage Length: 
183.3 nm
Block Time: 
0.9 hrs
Flight Time: 
0.7 hrs
Fuel Used: 
19,410 lb
Cleared Route: LLBG MATOV ORLEV TAPUZ KESEF YUVAL JILET DAFNA VELOX EMEDA BOSIS LCLK
TRACK DATA
50,000 ft 1,000 kts
AIRCRAFT INFO AND CUMULATIVE STATS
Aircraft Type: 
B744F
Registration: 
SELCAL: 
ELBS
MSN/LN: 
26563 / 1036
Operator: 
Total Flights: 
5
Total Block Time: 
19 hrs
Total Flight Time: 
18.2 hrs
Total Fuel Time: 
379,461 lb
DATALINK LOG | Newest first | Current as of: 2021-01-21 23:26:04
LABEL SEQUENCE CONTENT Dn/Up
QD595908:59 64.6▼ Dn
QC454508:45▼ Dn
GA1204NO GATES AVAILABLE▲ Up
GR1204LCLK 08:45 MAAS YP/UM WCHR/S/C HI-VAL NO DIPL/VIP NO▼ Dn
QB065908:06▼ Dn
QA055808:05 84▼ Dn
2U0316LCLK 270730Z 09005KT CAVOK 30/24 Q1007 NOSIG RMK VATSIM INJECTION▲ Up
2U0316LLBG 270750Z 28005KT 240V310 9999 FEW028 30/22 Q1006 NOSIG RMK VATSIM INJECTION▲ Up
2S0322LLBG LCLK▼ Dn
5Z531227 JUL 20 07:53:06z / FLT DECK GOOD / ACF POS GOOD / GRND SERVICES GOOD / MAINT GOOD▼ Dn
A35221CLEARED TO LCLK VIA DAFN1E DAFNA W13 VELOX B17 BOSIS. SQUAWK .▲ Up
B35211LLBG LCLK A ▼ Dn
Q05110[LINK ACK]▲ Up
Q05110[LINK TEST]▼ Dn


AIRCRAFT HISTORY
FLIGHT DATE FLIGHT NO. ORIGIN DESTINATION CLEARED ROUTE BLOCK TIME FLIGHT TIME FUEL USED PILOT
2021-01-04ELY2201LLBG LGAV LLBG MATOV ORLEV TAPUZ KESEF PURLA SUVAS TEZAK USEBE OTHON VAXOS FOXLI RDS CODIC USINI KOPAR LURUS AKINA PIDAX RIPLI VARIX KEA CI03R RW03R2 hrs1.8 hrs33,436 lbRoberto Stopnicki
2020-07-27ELY2201LCLK LLBG LCLK BOSIS EMEDA LLBG0.9 hrs0.8 hrs18,779 lbRoberto Stopnicki
2020-07-27ELY727LLBG LCLK LLBG MATOV ORLEV TAPUZ KESEF YUVAL JILET DAFNA VELOX EMEDA BOSIS LCLK0.9 hrs0.7 hrs19,410 lbChris Makris
2020-07-25ELY2201KSFO LLBG KSFO ORRCA FMG GASSI KU72I KU84K KU03M WLLES 55N02 YEK 6584N 6870N BOPUT 6960N 6950N 6840N 6630N 6420N 6210N GUNPA NIROD VADIN ELVIX KOLOB PEPOX BAREX NAXAR KELEL KEKED BADOR APROB ADORU ATVEP ULMAR EKI YAYLA KUDAK ESKIN KULAR NESIL LAMSA EDISI TOMBI IDAKU PIKOG ZUKKO LLBG13.5 hrs13.3 hrs273,514 lbRoberto Stopnicki
2020-07-23ELY2201KMZJ KSFO KMZJ TFD BXK RUSME DYAMD LAANE ALWYS HEFLY ARRTU ADDMM COGGR BERKS CCR RW19L1.7 hrs1.6 hrs34,323 lbRoberto Stopnicki